createdAt,value
2022-12-17T07:26:05.347Z,-0.79
2022-12-17T07:28:55.069Z,-0.79
2022-12-17T07:31:44.305Z,-0.79
2022-12-17T07:34:33.943Z,-0.77
2022-12-17T07:37:23.070Z,-0.76
2022-12-17T07:40:12.640Z,-0.77
2022-12-17T07:43:04.400Z,-0.80
2022-12-17T07:45:54.080Z,-0.80
2022-12-17T07:48:43.356Z,-0.80
2022-12-17T07:51:32.827Z,-0.80
2022-12-17T07:54:22.008Z,-0.77
2022-12-17T07:57:11.548Z,-0.81
2022-12-17T08:00:03.331Z,-0.81
2022-12-17T08:02:54.333Z,-0.80
2022-12-17T08:05:43.648Z,-0.79
2022-12-17T08:08:33.188Z,-0.80
2022-12-17T08:11:22.397Z,-0.83
2022-12-17T08:14:12.117Z,-0.86
2022-12-17T08:17:04.722Z,-0.82
2022-12-17T08:19:54.462Z,-0.81
2022-12-17T08:22:43.625Z,-0.80
2022-12-17T08:25:33.387Z,-0.79
2022-12-17T08:31:35.269Z,-0.75
2022-12-17T08:34:27.883Z,-0.72
2022-12-17T08:37:17.621Z,-0.68
2022-12-17T08:40:07.918Z,-0.67
2022-12-17T08:43:12.180Z,-0.58
2022-12-17T08:46:04.162Z,-0.56
2022-12-17T08:48:54.428Z,-0.49
2022-12-17T08:51:46.250Z,-0.39
2022-12-17T08:54:35.746Z,-0.34
2022-12-17T08:57:31.881Z,-0.34
2022-12-17T09:00:24.434Z,-0.26
2022-12-17T09:03:14.684Z,-0.22
2022-12-17T09:06:04.453Z,-0.26
2022-12-17T09:08:56.302Z,-0.21
2022-12-17T09:11:46.171Z,-0.22
2022-12-17T09:14:35.337Z,-0.25
2022-12-17T09:17:24.984Z,-0.23
2022-12-17T09:20:14.181Z,-0.19
2022-12-17T09:23:03.792Z,-0.10
2022-12-17T09:25:58.234Z,0.07
2022-12-17T09:28:48.042Z,0.18
2022-12-17T09:31:37.809Z,0.31
2022-12-17T09:34:27.896Z,0.39
2022-12-17T09:37:17.154Z,0.49
2022-12-17T09:40:06.737Z,0.60
2022-12-17T09:43:05.309Z,0.72
2022-12-17T09:46:02.899Z,0.87
2022-12-17T09:49:01.747Z,1.06
2022-12-17T09:51:53.227Z,1.19
2022-12-17T09:54:49.549Z,1.31
2022-12-17T09:57:43.947Z,1.38
2022-12-17T10:00:40.585Z,1.42
2022-12-17T10:03:33.709Z,1.31
2022-12-17T10:06:27.590Z,1.28
2022-12-17T10:09:25.628Z,1.26
2022-12-17T10:12:23.944Z,1.26
2022-12-17T10:15:13.922Z,1.25
2022-12-17T10:18:05.665Z,1.25
2022-12-17T10:21:01.653Z,1.27
2022-12-17T10:23:51.367Z,1.29
2022-12-17T10:26:45.512Z,1.29
2022-12-17T10:29:48.398Z,1.24
2022-12-17T10:32:40.443Z,1.20
2022-12-17T10:35:36.785Z,1.17
2022-12-17T10:38:35.864Z,1.15
2022-12-17T10:41:38.935Z,1.06
2022-12-17T10:44:39.880Z,1.01
2022-12-17T10:47:31.382Z,1.02
2022-12-17T10:50:25.991Z,1.07
2022-12-17T10:53:28.411Z,1.07
2022-12-17T10:56:19.051Z,1.05
2022-12-17T10:59:09.904Z,1.10
2022-12-17T11:01:59.635Z,1.12
2022-12-17T11:04:52.789Z,1.13
2022-12-17T11:07:46.977Z,1.16
2022-12-17T11:10:41.440Z,1.21
2022-12-17T11:13:39.727Z,1.22
2022-12-17T11:16:37.618Z,1.21
2022-12-17T11:19:53.578Z,1.26
2022-12-17T11:22:50.455Z,1.28
2022-12-17T11:25:51.360Z,1.29
2022-12-17T11:28:43.240Z,1.23
2022-12-17T11:32:19.757Z,1.32
2022-12-17T11:35:23.040Z,1.44
2022-12-17T11:38:23.039Z,1.53
2022-12-17T11:41:23.952Z,1.50
2022-12-17T11:44:23.950Z,1.56
2022-12-17T11:47:35.862Z,1.56
2022-12-17T11:50:47.291Z,1.53
2022-12-17T11:53:58.830Z,1.56
2022-12-17T11:56:58.541Z,1.52
2022-12-17T11:59:54.911Z,1.52
2022-12-17T12:03:07.480Z,1.52
2022-12-17T12:06:04.688Z,1.52
2022-12-17T12:09:05.919Z,1.49
2022-12-17T12:12:08.890Z,1.49
2022-12-17T12:15:22.202Z,1.52
2022-12-17T12:18:19.568Z,1.50
2022-12-17T12:21:39.239Z,1.49
2022-12-17T12:24:46.742Z,1.51
2022-12-17T12:27:51.797Z,1.52
2022-12-17T12:30:54.295Z,1.53
2022-12-17T12:34:06.503Z,1.52
2022-12-17T12:36:59.168Z,1.52
2022-12-17T12:39:56.083Z,1.51
2022-12-17T12:42:58.330Z,1.52
2022-12-17T12:46:07.848Z,1.54
2022-12-17T12:49:05.109Z,1.52
2022-12-17T12:51:55.178Z,1.51
2022-12-17T12:54:47.929Z,1.48
2022-12-17T12:57:52.896Z,1.47
2022-12-17T13:00:53.080Z,1.43
2022-12-17T13:03:47.600Z,1.42
2022-12-17T13:06:46.218Z,1.40
2022-12-17T13:09:35.529Z,1.38
2022-12-17T13:12:33.659Z,1.27
2022-12-17T13:15:31.678Z,1.28
2022-12-17T13:18:24.866Z,1.29
2022-12-17T13:21:06.553Z,1.22
2022-12-17T13:23:45.008Z,1.21
2022-12-17T13:26:32.817Z,1.19
2022-12-17T13:29:32.320Z,1.17
2022-12-17T13:32:25.888Z,1.15
2022-12-17T13:35:22.392Z,1.11
2022-12-17T13:38:12.408Z,1.10
2022-12-17T13:41:11.002Z,1.11
2022-12-17T13:43:51.645Z,0.99
2022-12-17T13:46:32.145Z,1.00
2022-12-17T13:49:24.069Z,0.92
2022-12-17T13:52:12.112Z,0.94
2022-12-17T13:54:51.389Z,0.91
2022-12-17T13:57:32.312Z,0.86
2022-12-17T14:00:22.003Z,0.85
2022-12-17T14:03:00.157Z,0.78
2022-12-17T14:05:47.625Z,0.81
2022-12-17T14:08:25.989Z,0.81
2022-12-17T14:11:15.998Z,0.78
2022-12-17T14:13:53.895Z,0.74
2022-12-17T14:16:32.112Z,0.70
2022-12-17T14:19:15.438Z,0.68
2022-12-17T14:21:56.046Z,0.67
2022-12-17T14:24:33.626Z,0.63
2022-12-17T14:27:29.799Z,0.63
2022-12-17T14:30:27.409Z,0.62
2022-12-17T14:33:05.001Z,0.59
2022-12-17T14:35:44.559Z,0.61
2022-12-17T14:38:37.356Z,0.58
2022-12-17T14:41:35.551Z,0.53
2022-12-17T14:44:39.472Z,0.55
2022-12-17T14:47:30.648Z,0.54
2022-12-17T14:50:43.011Z,0.54
2022-12-17T14:53:46.099Z,0.53
2022-12-17T14:56:40.896Z,0.48
2022-12-17T14:59:30.184Z,0.49
2022-12-17T15:02:28.308Z,0.46
2022-12-17T15:05:12.298Z,0.49
2022-12-17T15:07:59.774Z,0.42
2022-12-17T15:10:51.063Z,0.39
2022-12-17T15:13:33.588Z,0.34
2022-12-17T15:16:19.089Z,0.33
2022-12-17T15:19:13.357Z,0.35
2022-12-17T15:22:00.069Z,0.31
2022-12-17T15:24:40.450Z,0.33
2022-12-17T15:27:22.008Z,0.28
2022-12-17T15:30:00.158Z,0.28
2022-12-17T15:32:37.678Z,0.27
2022-12-17T15:35:18.067Z,0.26
2022-12-17T15:37:55.778Z,0.26
2022-12-17T15:40:33.544Z,0.25
2022-12-17T15:43:15.037Z,0.26
2022-12-17T15:45:54.518Z,0.24
2022-12-17T15:48:32.231Z,0.21
2022-12-17T15:51:11.932Z,0.17
2022-12-17T15:53:53.028Z,0.15
2022-12-17T15:56:32.560Z,0.15
2022-12-17T15:59:12.541Z,0.07
2022-12-17T16:01:50.856Z,0.07
2022-12-17T16:04:30.549Z,0.05
2022-12-17T16:07:09.209Z,0.06
2022-12-17T16:09:46.698Z,0.05
2022-12-17T16:12:25.481Z,0.01
2022-12-17T16:15:07.211Z,-0.01
2022-12-17T16:17:48.730Z,-0.05
2022-12-17T16:20:26.618Z,-0.06
2022-12-17T16:23:04.968Z,-0.12
2022-12-17T16:25:43.739Z,-0.15
2022-12-17T16:28:22.846Z,-0.17
2022-12-17T16:31:11.529Z,-0.22
2022-12-17T16:33:50.189Z,-0.30
2022-12-17T16:36:27.976Z,-0.33
2022-12-17T16:39:06.529Z,-0.34
2022-12-17T16:41:44.855Z,-0.37
2022-12-17T16:44:23.128Z,-0.44
2022-12-17T16:47:03.687Z,-0.44
2022-12-17T16:49:41.680Z,-0.44
2022-12-17T16:52:18.761Z,-0.45
2022-12-17T16:54:57.162Z,-0.44
2022-12-17T16:57:34.957Z,-0.46
2022-12-17T17:00:14.843Z,-0.59
2022-12-17T17:02:55.263Z,-0.63
2022-12-17T17:05:36.529Z,-0.60
2022-12-17T17:08:13.670Z,-0.59
2022-12-17T17:10:51.271Z,-0.74
2022-12-17T17:13:28.212Z,-0.70
2022-12-17T17:16:05.696Z,-0.74
2022-12-17T17:18:45.586Z,-0.73
2022-12-17T17:21:31.578Z,-0.82
2022-12-17T17:24:20.117Z,-0.84
2022-12-17T17:26:59.567Z,-0.89
2022-12-17T17:29:38.937Z,-0.99
2022-12-17T17:32:16.796Z,-1.04
2022-12-17T17:34:57.000Z,-1.13
2022-12-17T17:37:34.533Z,-1.18
2022-12-17T17:40:14.472Z,-1.21
2022-12-17T17:42:53.083Z,-1.26
2022-12-17T17:45:40.822Z,-1.28
2022-12-17T17:48:19.205Z,-1.34
2022-12-17T17:51:08.542Z,-1.36
2022-12-17T17:53:49.562Z,-1.39
2022-12-17T17:56:32.406Z,-1.40
2022-12-17T17:59:15.902Z,-1.41
2022-12-17T18:01:55.496Z,-1.41
2022-12-17T18:04:35.400Z,-1.44
2022-12-17T18:07:25.108Z,-1.40
2022-12-17T18:10:04.941Z,-1.43
2022-12-17T18:12:55.269Z,-1.40
2022-12-17T18:15:35.031Z,-1.41
2022-12-17T18:18:14.836Z,-1.38
2022-12-17T18:21:05.370Z,-1.36
2022-12-17T18:23:47.359Z,-1.35
2022-12-17T18:26:27.875Z,-1.39
2022-12-17T18:29:05.412Z,-1.35
2022-12-17T18:31:48.477Z,-1.33
2022-12-17T18:34:29.698Z,-1.29
2022-12-17T18:37:07.419Z,-1.25
2022-12-17T18:39:47.770Z,-1.24
2022-12-17T18:42:38.667Z,-1.21
2022-12-17T18:45:16.109Z,-1.20
2022-12-17T18:47:54.983Z,-1.17
2022-12-17T18:50:32.361Z,-1.15
2022-12-17T18:53:10.931Z,-1.15
2022-12-17T18:55:51.087Z,-1.16
2022-12-17T18:58:29.422Z,-1.13
2022-12-17T19:01:06.776Z,-1.13
2022-12-17T19:03:44.990Z,-1.14
2022-12-17T19:06:23.512Z,-1.10
2022-12-17T19:09:01.839Z,-1.08
2022-12-17T19:11:43.754Z,-1.05
2022-12-17T19:14:22.941Z,-1.05
2022-12-17T19:17:01.501Z,-1.02
2022-12-17T19:19:39.781Z,-1.00
2022-12-17T19:22:18.255Z,-1.00
2022-12-17T19:25:00.120Z,-0.96
2022-12-17T19:27:41.788Z,-0.93
2022-12-17T19:30:19.988Z,-0.92
2022-12-17T19:32:57.980Z,-0.93
2022-12-17T19:35:39.260Z,-0.87
2022-12-17T19:38:22.531Z,-0.88
2022-12-17T19:41:00.369Z,-0.87
2022-12-17T19:43:40.723Z,-0.86
2022-12-17T19:46:21.831Z,-0.93
2022-12-17T19:49:03.538Z,-0.93
2022-12-17T19:51:44.754Z,-0.98
2022-12-17T19:54:22.921Z,-0.99
2022-12-17T19:57:00.941Z,-1.00
2022-12-17T19:59:41.421Z,-1.02
2022-12-17T20:02:22.250Z,-1.04
2022-12-17T20:05:01.092Z,-1.07
2022-12-17T20:07:39.208Z,-1.12
2022-12-17T20:10:16.399Z,-1.15
2022-12-17T20:12:57.447Z,-1.19
2022-12-17T20:15:37.729Z,-1.19
2022-12-17T20:18:16.248Z,-1.20
2022-12-17T20:20:56.230Z,-1.24
2022-12-17T20:23:34.587Z,-1.28
2022-12-17T20:26:15.266Z,-1.27
2022-12-17T20:28:58.092Z,-1.27
2022-12-17T20:31:40.428Z,-1.29
2022-12-17T20:34:21.617Z,-1.29
2022-12-17T20:36:58.959Z,-1.32
2022-12-17T20:39:37.322Z,-1.35
2022-12-17T20:42:15.571Z,-1.39
2022-12-17T20:44:53.702Z,-1.40
2022-12-17T20:47:34.491Z,-1.45
2022-12-17T20:50:14.179Z,-1.48
2022-12-17T20:52:52.301Z,-1.51
2022-12-17T20:55:33.267Z,-1.52
2022-12-17T20:58:12.190Z,-1.59
2022-12-17T21:00:50.412Z,-1.60
2022-12-17T21:03:33.004Z,-1.60
2022-12-17T21:06:14.720Z,-1.60
2022-12-17T21:08:53.604Z,-1.62
2022-12-17T21:11:35.044Z,-1.59
2022-12-17T21:14:15.696Z,-1.60
2022-12-17T21:16:53.870Z,-1.57
2022-12-17T21:19:33.858Z,-1.58
2022-12-17T21:22:11.870Z,-1.56
2022-12-17T21:24:49.399Z,-1.55
2022-12-17T21:27:26.987Z,-1.56
2022-12-17T21:30:05.961Z,-1.56
2022-12-17T21:32:50.047Z,-1.55
2022-12-17T21:35:31.548Z,-1.53
2022-12-17T21:38:09.126Z,-1.57
2022-12-17T21:40:48.351Z,-1.58
2022-12-17T21:43:26.787Z,-1.61
2022-12-17T21:46:03.982Z,-1.64
2022-12-17T21:48:44.344Z,-1.67
2022-12-17T21:51:25.084Z,-1.73
2022-12-17T21:54:08.562Z,-1.73
2022-12-17T21:56:46.989Z,-1.72
